Observations for BRINDISI, Italy (LIBR)

LIBR 240920Z 34012KT 310V010 9999 FEW020 27/20 Q1015
LIBR 240850Z 34013KT 9999 SCT015 26/20 Q1015
LIBR 240820Z 32010KT 9999 SCT020 26/20 Q1015
LIBR 240750Z 32011KT 9999 SCT015 25/20 Q1015
LIBR 240720Z 33011KT 300V360 9999 SCT020 26/20 Q1015
LIBR 240650Z 34011KT 300V360 9999 SCT020 26/20 Q1015
LIBR 240620Z 33011KT 9999 FEW015 25/20 Q1015
LIBR 240550Z 34011KT 9999 SCT015 25/20 Q1015
LIBR 240520Z 32010KT 9999 FEW015 25/19 Q1015
LIBR 240450Z 31011KT 9999 FEW015 24/21 Q1015
LIBR 240420Z 34011KT 310V010 9999 FEW015 24/21 Q1014
LIBR 240350Z 35012KT 9999 SCT015 24/21 Q1014
LIBR 240320Z 34010KT 9999 SCT015 24/21 Q1014
LIBR 240250Z 34009KT CAVOK 24/20 Q1014  
LIBR 240220Z 34008KT CAVOK 24/20 Q1014  
LIBR 240150Z 34009KT CAVOK 24/19 Q1014  
LIBR 240120Z 34008KT CAVOK 24/19 Q1014  
LIBR 240050Z 33008KT CAVOK 24/19 Q1014  
LIBR 240020Z 33006KT CAVOK 24/20 Q1014  
LIBR 232320Z 32007KT CAVOK 24/20 Q1014  
LIBR 232250Z 33007KT CAVOK 24/21 Q1014  
LIBR 232220Z 33007KT CAVOK 25/21 Q1015  
LIBR 232150Z 34007KT CAVOK 25/21 Q1015  
LIBR 232120Z 34007KT CAVOK 25/21 Q1014  
LIBR 232050Z 35007KT CAVOK 25/21 Q1014  
LIBR 232020Z 35007KT CAVOK 25/20 Q1014  
LIBR 231950Z 35007KT CAVOK 25/21 Q1014  
LIBR 231920Z 36007KT CAVOK 25/21 Q1014  
LIBR 231850Z 36007KT CAVOK 25/21 Q1014  
LIBR 231820Z 36007KT CAVOK 25/21 Q1014  
LIBR 231750Z 01008KT CAVOK 26/20 Q1014  
LIBR 231720Z 01009KT CAVOK 26/21 Q1014  
LIBR 231650Z 01009KT CAVOK 26/21 Q1013  
LIBR 231620Z 01008KT CAVOK 26/21 Q1013  
LIBR 231550Z 36008KT CAVOK 26/21 Q1013  
LIBR 231520Z 01008KT 9999 FEW020 26/21 Q1013
LIBR 231450Z 01010KT 9999 FEW020 27/22 Q1013
LIBR 231420Z 01010KT 9999 FEW025 27/22 Q1013
LIBR 231350Z 02010KT 9999 FEW025 28/23 Q1013
LIBR 231320Z 02011KT 9999 FEW025 28/23 Q1013
LIBR 231250Z 01011KT 9999 FEW030 28/24 Q1013
LIBR 231220Z 01010KT 9999 FEW030 27/23 Q1013
LIBR 231150Z 01011KT 9999 FEW030 28/23 Q1013
LIBR 231120Z 03007KT 9999 FEW030 28/23 Q1014
LIBR 231050Z 03006KT CAVOK 28/22 Q1014  
LIBR 230950Z 01007KT 9999 FEW020 29/20 Q1014
LIBR 230920Z 36008KT CAVOK 28/20 Q1014  
LIBR 230850Z 32004KT 260V040 CAVOK 29/18 Q1013